Time;durP1;ratioP1;P1;durP2;ratioP2;P2;SDS_P1;SDS_P2;PMS_P1;PMS_P2;Temp;Humidity;BMP_temperature;BMP_pressure;BME280_temperature;BME280_humidity;BME280_pressure;Samples;Min_cycle;Max_cycle;Signal;HPM_P1;HPM_P2
2021/01/01 00:00:20;;;;;;;151.70;74.70;;;;;;;-1.81;81.66;99706.08;1782560;77;38263;-83
2021/01/01 00:02:48;;;;;;;151.53;68.72;;;;;;;-1.81;81.67;99710.00;1773937;79;21187;-83
2021/01/01 00:05:15;;;;;;;154.07;66.37;;;;;;;-1.84;81.70;99711.52;1781779;79;21257;-84
2021/01/01 00:07:44;;;;;;;167.53;75.10;;;;;;;-1.86;81.73;99717.31;1775221;79;21070;-85
2021/01/01 00:10:14;;;;;;;147.95;65.10;;;;;;;-1.88;81.77;99710.07;1780727;79;21212;-83
2021/01/01 00:12:40;;;;;;;151.20;65.55;;;;;;;-1.89;81.79;99715.39;1783118;79;21199;-85
2021/01/01 00:15:07;;;;;;;152.90;66.17;;;;;;;-1.91;81.83;99715.52;1781982;79;21609;-82
2021/01/01 00:17:33;;;;;;;152.30;68.33;;;;;;;-1.92;81.85;99715.14;1773183;80;21596;-82
2021/01/01 00:20:00;;;;;;;140.03;63.45;;;;;;;-1.94;81.87;99713.13;1756911;80;21204;-81
2021/01/01 00:22:26;;;;;;;152.20;68.52;;;;;;;-1.94;81.89;99714.43;1748217;82;21699;-82
2021/01/01 00:24:52;;;;;;;143.87;66.17;;;;;;;-1.97;81.91;99721.15;1748265;82;21168;-83
2021/01/01 00:27:19;;;;;;;130.78;58.15;;;;;;;-2.00;81.94;99717.45;1763103;80;21144;-82
2021/01/01 00:29:45;;;;;;;147.65;61.18;;;;;;;-2.03;81.95;99719.81;1776630;80;21226;-83
2021/01/01 00:32:11;;;;;;;138.37;58.05;;;;;;;-2.05;81.96;99730.02;1793950;80;21604;-83
2021/01/01 00:34:37;;;;;;;143.82;67.72;;;;;;;-2.08;81.98;99724.55;1756314;80;21187;-83
2021/01/01 00:37:04;;;;;;;133.15;55.80;;;;;;;-2.07;81.97;99732.72;1754146;81;21140;-82
2021/01/01 00:39:30;;;;;;;136.40;61.90;;;;;;;-2.09;82.02;99722.02;1754322;81;21163;-83
2021/01/01 00:41:56;;;;;;;135.57;53.85;;;;;;;-2.10;82.02;99729.48;1757527;80;22080;-82
2021/01/01 00:44:22;;;;;;;137.25;56.85;;;;;;;-2.11;82.05;99731.75;1755604;80;21636;-82
2021/01/01 00:46:49;;;;;;;122.45;52.10;;;;;;;-2.12;82.06;99727.47;1746298;81;21192;-81
2021/01/01 00:49:15;;;;;;;121.47;55.35;;;;;;;-2.14;82.09;99725.41;1758879;80;21160;-81
2021/01/01 00:51:45;;;;;;;143.40;61.73;;;;;;;-2.15;82.10;99730.30;1761171;80;21132;-82
2021/01/01 00:54:09;;;;;;;141.20;57.48;;;;;;;-2.17;82.12;99732.16;1763318;80;21623;-82
2021/01/01 00:56:36;;;;;;;127.78;54.53;;;;;;;-2.17;82.15;99732.16;1766368;80;21583;-82
2021/01/01 00:59:02;;;;;;;137.62;58.85;;;;;;;-2.20;82.18;99730.60;1770658;80;21155;-82
2021/01/01 01:01:28;;;;;;;138.20;59.80;;;;;;;-2.20;82.17;99729.77;1756419;81;21199;-82
2021/01/01 01:03:56;;;;;;;123.58;55.60;;;;;;;-2.22;82.20;99729.89;1785339;80;21178;-82
2021/01/01 01:06:23;;;;;;;116.60;53.13;;;;;;;-2.22;82.23;99734.27;1775532;80;21212;-81
2021/01/01 01:08:50;;;;;;;135.90;60.83;;;;;;;-2.24;82.23;99733.52;1756310;80;21238;-83
2021/01/01 01:11:25;;;;;;;112.28;53.10;;;;;;;-2.27;82.23;99733.73;1770086;80;21219;-81
2021/01/01 01:13:52;;;;;;;109.15;48.17;;;;;;;-2.29;82.26;99729.10;1765176;80;21199;-83
2021/01/01 01:16:26;;;;;;;129.70;53.52;;;;;;;-2.31;82.27;99729.66;1774862;80;21203;-82
2021/01/01 01:18:53;;;;;;;120.60;51.05;;;;;;;-2.32;82.29;99733.23;1784453;80;21983;-82
2021/01/01 01:21:20;;;;;;;112.95;51.25;;;;;;;-2.34;82.29;99735.94;1755341;81;21769;-82
2021/01/01 01:23:47;;;;;;;106.70;44.23;;;;;;;-2.33;82.33;99731.55;1755468;81;21150;-82
2021/01/01 01:26:14;;;;;;;111.35;46.95;;;;;;;-2.34;82.34;99736.41;1755464;81;21624;-82
2021/01/01 01:28:40;;;;;;;95.42;42.73;;;;;;;-2.35;82.37;99738.64;1755554;81;21676;-81
2021/01/01 01:31:07;;;;;;;108.20;46.23;;;;;;;-2.36;82.39;99736.99;1755464;81;21201;-82
2021/01/01 01:33:37;;;;;;;111.57;48.00;;;;;;;-2.39;82.41;99734.59;1755581;81;21689;-81
2021/01/01 01:36:04;;;;;;;102.15;45.35;;;;;;;-2.40;82.42;99730.30;1754766;81;21248;-82
2021/01/01 01:38:30;;;;;;;100.47;45.60;;;;;;;-2.43;82.46;99731.36;1755001;81;21198;-82
2021/01/01 01:40:57;;;;;;;101.42;44.63;;;;;;;-2.43;82.48;99729.21;1755516;81;21173;-82
2021/01/01 01:43:23;;;;;;;95.38;42.88;;;;;;;-2.44;82.51;99737.97;1755692;81;21233;-82
2021/01/01 01:45:50;;;;;;;112.47;46.95;;;;;;;-2.46;82.51;99735.95;1755919;81;21176;-82
2021/01/01 01:48:21;;;;;;;91.85;40.85;;;;;;;-2.47;82.53;99739.02;1755775;81;21145;-82
2021/01/01 01:50:47;;;;;;;112.85;51.73;;;;;;;-2.48;82.54;99734.73;1781208;80;21181;-82
2021/01/01 01:53:13;;;;;;;98.85;43.40;;;;;;;-2.51;82.57;99733.64;1754785;81;21144;-82
2021/01/01 01:55:40;;;;;;;102.47;46.35;;;;;;;-2.50;82.60;99739.70;1787291;80;22009;-82
2021/01/01 01:58:06;;;;;;;95.25;39.67;;;;;;;-2.55;82.62;99736.93;1754634;81;21656;-82
2021/01/01 02:03:18;;;;;;;108.57;49.00;;;;;;;-2.57;82.66;99736.18;1751877;81;21248;-82
2021/01/01 02:05:44;;;;;;;134.50;63.17;;;;;;;-2.58;82.66;99739.75;1720744;83;21148;-81
2021/01/01 02:08:12;;;;;;;93.47;41.75;;;;;;;-2.60;82.69;99743.38;1703037;83;21221;-82
2021/01/01 02:10:38;;;;;;;108.07;46.83;;;;;;;-2.61;82.70;99749.09;1721726;82;21187;-82
2021/01/01 02:13:05;;;;;;;102.87;44.30;;;;;;;-2.62;82.71;99743.50;1729823;82;21195;-82
2021/01/01 02:15:32;;;;;;;92.55;43.65;;;;;;;-2.64;82.72;99741.45;1701601;84;21146;-81
2021/01/01 02:17:58;;;;;;;97.97;43.60;;;;;;;-2.67;82.73;99740.35;1701849;84;21183;-82
2021/01/01 02:20:24;;;;;;;107.78;46.70;;;;;;;-2.69;82.75;99742.70;1701744;84;21209;-81
2021/01/01 02:22:51;;;;;;;97.92;43.65;;;;;;;-2.70;82.76;99746.24;1701344;84;21227;-81
2021/01/01 02:25:18;;;;;;;117.50;50.43;;;;;;;-2.70;82.77;99744.94;1704153;82;21183;-81
2021/01/01 02:27:44;;;;;;;103.40;47.60;;;;;;;-2.72;82.79;99746.36;1736423;82;21626;-82
2021/01/01 02:30:12;;;;;;;104.87;46.95;;;;;;;-2.73;82.81;99743.38;1724101;82;21199;-81
2021/01/01 02:32:38;;;;;;;111.97;47.95;;;;;;;-2.73;82.82;99742.08;1712335;82;21261;-81
2021/01/01 02:35:07;;;;;;;94.47;40.75;;;;;;;-2.73;82.82;99743.38;1721800;83;21190;-81
2021/01/01 02:37:33;;;;;;;99.92;44.53;;;;;;;-2.73;82.85;99739.47;1721178;83;21791;-81
2021/01/01 02:39:59;;;;;;;93.42;42.80;;;;;;;-2.76;82.84;99742.28;1751436;81;21215;-82
2021/01/01 02:42:25;;;;;;;91.97;39.25;;;;;;;-2.79;82.85;99739.88;1750879;81;21164;-81
2021/01/01 02:44:52;;;;;;;85.30;36.93;;;;;;;-2.82;82.85;99743.16;1751807;81;21195;-81
2021/01/01 02:47:18;;;;;;;90.32;40.63;;;;;;;-2.85;82.83;99741.57;1751935;81;21207;-82
2021/01/01 02:49:44;;;;;;;87.22;39.75;;;;;;;-2.86;82.84;99743.00;1745777;81;21596;-82
2021/01/01 02:52:11;;;;;;;89.72;40.58;;;;;;;-2.91;82.87;99747.20;1751794;81;21175;-81
2021/01/01 02:54:37;;;;;;;93.62;42.25;;;;;;;-2.96;82.87;99741.94;1751747;81;21140;-81
2021/01/01 02:57:04;;;;;;;89.35;40.73;;;;;;;-2.97;82.88;99737.19;1748701;81;21195;-81
2021/01/01 02:59:30;;;;;;;96.47;44.45;;;;;;;-2.98;82.89;99738.11;1723936;81;21208;-82
2021/01/01 03:01:56;;;;;;;88.55;39.40;;;;;;;-3.04;82.88;99734.61;1732934;82;21172;-81
2021/01/01 03:04:22;;;;;;;92.25;40.25;;;;;;;-3.10;82.90;99729.80;1732866;82;22473;-81
2021/01/01 03:06:49;;;;;;;99.77;44.40;;;;;;;-3.11;82.90;99727.66;1732853;82;21184;-82
2021/01/01 03:09:15;;;;;;;101.78;43.48;;;;;;;-3.14;82.92;99724.42;1732832;82;21188;-82
2021/01/01 03:11:41;;;;;;;95.75;40.67;;;;;;;-3.17;82.94;99724.63;1731038;81;21224;-81
2021/01/01 03:14:07;;;;;;;97.75;43.80;;;;;;;-3.21;82.95;99727.90;1725049;82;21228;-81
2021/01/01 03:16:33;;;;;;;92.42;34.33;;;;;;;-3.22;82.98;99725.38;1726268;81;21214;-81
2021/01/01 03:19:00;;;;;;;81.57;35.68;;;;;;;-3.23;83.01;99722.39;1702491;84;21672;-81
2021/01/01 03:21:26;;;;;;;90.60;36.83;;;;;;;-3.26;83.02;99722.59;1733502;82;21595;-82
2021/01/01 03:23:52;;;;;;;86.10;34.25;;;;;;;-3.32;83.01;99726.91;1732596;82;21197;-81
2021/01/01 03:26:19;;;;;;;76.42;34.20;;;;;;;-3.35;83.03;99729.72;1702154;84;21194;-81
2021/01/01 03:28:45;;;;;;;76.87;36.38;;;;;;;-3.38;83.06;99728.63;1733158;82;21168;-82
2021/01/01 03:31:11;;;;;;;74.20;33.65;;;;;;;-3.42;83.06;99731.05;1760055;81;21145;-81
2021/01/01 03:33:37;;;;;;;69.87;32.53;;;;;;;-3.44;83.09;99731.13;1759959;81;21210;-81
2021/01/01 03:36:04;;;;;;;70.83;28.67;;;;;;;-3.45;83.07;99724.73;1759955;81;21211;-81
2021/01/01 03:38:33;;;;;;;75.00;30.70;;;;;;;-3.49;83.10;99731.08;1759709;81;21149;-81
2021/01/01 03:40:59;;;;;;;76.85;35.25;;;;;;;-3.52;83.12;99728.67;1759706;81;21161;-81
2021/01/01 03:43:25;;;;;;;86.67;35.15;;;;;;;-3.47;83.14;99730.49;1759647;81;21228;-82
2021/01/01 03:45:52;;;;;;;100.90;38.85;;;;;;;-3.40;83.16;99730.47;1759720;81;22057;-82
2021/01/01 03:48:18;;;;;;;87.17;35.08;;;;;;;-3.34;83.17;99729.61;1757845;80;21711;-82
2021/01/01 03:50:45;;;;;;;73.92;32.48;;;;;;;-3.31;83.19;99734.65;1729755;81;21193;-81
2021/01/01 03:53:11;;;;;;;115.50;37.80;;;;;;;-3.32;83.21;99728.22;1729915;81;21157;-81
2021/01/01 03:55:38;;;;;;;119.05;39.55;;;;;;;-3.31;83.24;99731.20;1729918;81;21576;-82
2021/01/01 03:58:04;;;;;;;210.05;49.10;;;;;;;-3.30;83.27;99726.33;1729941;81;22690;-82
2021/01/01 04:00:30;;;;;;;234.03;48.73;;;;;;;-3.28;83.30;99724.02;1769036;80;21563;-82
2021/01/01 04:02:57;;;;;;;96.42;31.90;;;;;;;-3.33;83.30;99726.53;1780997;80;21121;-82
2021/01/01 04:05:23;;;;;;;90.32;32.10;;;;;;;-3.41;83.29;99724.91;1781075;80;21191;-82
2021/01/01 04:07:49;;;;;;;164.25;41.85;;;;;;;-3.41;83.30;99728.83;1781147;80;21155;-82
2021/01/01 04:10:15;;;;;;;491.45;114.08;;;;;;;-3.37;83.33;99724.59;1781337;80;21180;-81
2021/01/01 04:12:42;;;;;;;270.67;62.33;;;;;;;-3.39;83.33;99723.88;1781111;80;21176;-82
2021/01/01 04:15:09;;;;;;;220.70;48.20;;;;;;;-3.38;83.34;99724.71;1734424;82;21139;-81
2021/01/01 04:17:36;;;;;;;80.80;29.50;;;;;;;-3.42;83.36;99731.05;1781591;80;21160;-82
2021/01/01 04:20:04;;;;;;;116.10;35.20;;;;;;;-3.47;83.37;99723.98;1704891;82;21560;-81
2021/01/01 04:22:30;;;;;;;77.40;31.62;;;;;;;-3.48;83.39;99732.26;1784026;80;22163;-82
2021/01/01 04:24:56;;;;;;;87.42;31.87;;;;;;;-3.46;83.40;99726.97;1734003;82;21584;-82
2021/01/01 04:27:23;;;;;;;72.30;28.95;;;;;;;-3.44;83.45;99732.90;1783698;80;21235;-81
2021/01/01 04:29:49;;;;;;;81.45;32.98;;;;;;;-3.43;83.45;99731.52;1734178;82;22151;-82
2021/01/01 04:32:15;;;;;;;84.55;34.05;;;;;;;-3.44;83.46;99725.92;1783609;80;21580;-82
2021/01/01 04:34:42;;;;;;;71.40;30.55;;;;;;;-3.40;83.48;99728.70;1734169;82;21276;-81
2021/01/01 04:37:08;;;;;;;71.12;31.52;;;;;;;-3.38;83.50;99731.23;1767624;81;21194;-81
2021/01/01 04:39:34;;;;;;;78.52;33.58;;;;;;;-3.34;83.53;99736.62;1780553;80;21132;-81
2021/01/01 04:42:00;;;;;;;73.80;30.05;;;;;;;-3.31;83.55;99739.02;1780288;80;21168;-82
2021/01/01 04:44:27;;;;;;;74.07;29.30;;;;;;;-3.29;83.57;99738.44;1773234;80;21159;-81
2021/01/01 04:46:53;;;;;;;69.37;28.10;;;;;;;-3.30;83.56;99743.28;1749547;82;21857;-81
2021/01/01 04:49:19;;;;;;;83.33;33.13;;;;;;;-3.34;83.59;99737.42;1749771;80;21186;-81
2021/01/01 04:51:46;;;;;;;71.05;29.35;;;;;;;-3.36;83.59;99743.68;1750646;80;21127;-81
2021/01/01 04:54:12;;;;;;;76.92;32.90;;;;;;;-3.38;83.61;99745.56;1733314;82;21205;-82
2021/01/01 04:56:48;;;;;;;75.50;31.27;;;;;;;-3.39;83.65;99749.09;1738356;82;21178;-82
2021/01/01 04:59:17;;;;;;;68.67;29.82;;;;;;;-3.40;83.67;99750.02;1739360;82;21223;-82
2021/01/01 05:01:44;;;;;;;67.55;27.22;;;;;;;-3.37;83.69;99754.56;1734693;82;21619;-82
2021/01/01 05:04:11;;;;;;;74.20;30.65;;;;;;;-3.36;83.71;99759.32;1733523;82;21607;-82
2021/01/01 05:06:39;;;;;;;82.85;33.15;;;;;;;-3.33;83.74;99760.42;1733877;82;21638;-82
2021/01/01 05:09:05;;;;;;;79.47;34.20;;;;;;;-3.28;83.75;99768.80;1733829;82;21150;-82
2021/01/01 05:11:32;;;;;;;78.22;30.88;;;;;;;-3.18;83.79;99768.11;1733843;82;21988;-81
2021/01/01 05:14:00;;;;;;;68.40;30.60;;;;;;;-3.08;83.81;99767.88;1751081;81;21187;-81
2021/01/01 05:16:26;;;;;;;62.27;25.20;;;;;;;-3.00;83.86;99773.91;1787805;80;21147;-82
2021/01/01 05:18:53;;;;;;;62.53;28.42;;;;;;;-3.08;83.85;99765.73;1787897;80;21183;-82
2021/01/01 05:21:27;;;;;;;68.40;28.67;;;;;;;-3.10;83.87;99774.14;1787871;80;21147;-82
2021/01/01 05:23:55;;;;;;;63.48;29.60;;;;;;;-3.14;83.88;99772.66;1787633;80;21215;-82
2021/01/01 05:26:28;;;;;;;65.00;29.60;;;;;;;-3.10;83.91;99772.33;1787684;80;21162;-82
2021/01/01 05:29:08;;;;;;;68.85;29.45;;;;;;;-3.06;83.94;99779.49;1787914;80;21139;-81
2021/01/01 05:31:40;;;;;;;63.02;23.42;;;;;;;-3.04;83.96;99773.27;1787928;80;21132;-82
2021/01/01 05:34:08;;;;;;;67.22;29.05;;;;;;;-3.06;83.99;99775.58;1787611;80;21522;-82
2021/01/01 05:36:41;;;;;;;63.68;26.95;;;;;;;-3.12;83.98;99779.89;1787717;80;21640;-83
2021/01/01 05:39:20;;;;;;;60.80;26.57;;;;;;;-3.15;84.00;99775.73;1787532;80;23011;-83
2021/01/01 05:41:51;;;;;;;62.95;25.02;;;;;;;-3.16;84.00;99774.51;1786084;80;21184;-83
2021/01/01 05:44:21;;;;;;;;;;;;;;;-3.18;84.04;99777.70;1782822;78;21570;-84
2021/01/01 05:47:04;;;;;;;56.33;24.20;;;;;;;-3.25;84.03;99777.72;1786054;79;20254;-83
2021/01/01 05:49:40;;;;;;;58.50;24.77;;;;;;;-3.31;84.06;99777.66;1785174;80;21218;-83
2021/01/01 05:52:11;;;;;;;58.23;23.45;;;;;;;-3.32;84.06;99772.53;1756554;81;21155;-84
2021/01/01 05:54:41;;;;;;;62.05;27.50;;;;;;;-3.33;84.09;99765.63;1756540;81;21593;-83
2021/01/01 05:57:09;;;;;;;64.47;26.37;;;;;;;-3.30;84.10;99768.04;1756729;81;21159;-83
2021/01/01 05:59:39;;;;;;;69.15;30.48;;;;;;;-3.28;84.13;99773.55;1756535;81;21127;-83
2021/01/01 06:02:07;;;;;;;62.10;27.00;;;;;;;-3.24;84.15;99767.67;1756665;81;21176;-84
2021/01/01 06:04:34;;;;;;;66.90;27.65;;;;;;;-3.15;84.18;99766.60;1756071;81;21596;-83
2021/01/01 06:07:02;;;;;;;62.80;26.62;;;;;;;-3.13;84.17;99776.95;1782744;80;21219;-83
2021/01/01 06:09:30;;;;;;;58.90;25.77;;;;;;;-3.11;84.20;99772.45;1787660;80;21135;-83
2021/01/01 06:12:05;;;;;;;65.90;27.27;;;;;;;-3.12;84.21;99768.16;1787650;80;21184;-83
2021/01/01 06:14:43;;;;;;;62.67;26.42;;;;;;;-3.12;84.23;99772.08;1787876;80;21259;-82
2021/01/01 06:17:17;;;;;;;72.87;30.10;;;;;;;-3.13;84.24;99779.55;1787827;80;21604;-82
2021/01/01 06:19:56;;;;;;;61.08;24.45;;;;;;;-3.15;84.24;99773.58;1787722;80;21168;-82
2021/01/01 06:22:24;;;;;;;61.02;25.65;;;;;;;-3.16;84.25;99769.30;1787879;80;21597;-82
2021/01/01 06:24:54;;;;;;;75.80;30.90;;;;;;;-3.20;84.26;99771.27;1787832;80;21148;-83
2021/01/01 06:27:22;;;;;;;;;;;;;;;-3.21;84.26;99768.77;1789940;80;21262;-82
2021/01/01 06:29:58;;;;;;;59.93;25.70;;;;;;;-3.20;84.27;99770.45;1787691;80;20233;-83
2021/01/01 06:32:25;;;;;;;72.55;30.82;;;;;;;-3.21;84.27;99770.08;1784545;80;21196;-82
2021/01/01 06:34:51;;;;;;;62.33;25.25;;;;;;;-3.14;84.27;99772.66;1748445;80;21140;-82
2021/01/01 06:37:39;;;;;;;64.97;27.07;;;;;;;-3.11;84.31;99775.06;1748558;82;21208;-82
2021/01/01 06:40:07;;;;;;;61.73;25.02;;;;;;;-3.14;84.31;99777.41;1748477;82;21235;-82
2021/01/01 06:42:58;;;;;;;67.12;28.55;;;;;;;-3.19;84.34;99769.50;1716946;82;21160;-82
2021/01/01 06:45:35;;;;;;;54.67;22.10;;;;;;;-3.19;84.34;99779.46;1748380;82;21632;-82
2021/01/01 06:48:06;;;;;;;57.93;22.73;;;;;;;-3.18;84.36;99782.91;1748447;82;21981;-82
2021/01/01 06:50:34;;;;;;;58.85;24.23;;;;;;;-3.28;84.34;99788.34;1764239;80;21172;-82
2021/01/01 06:53:06;;;;;;;54.88;23.05;;;;;;;-3.35;84.37;99774.88;1779500;80;22156;-82
2021/01/01 06:55:36;;;;;;;57.05;23.20;;;;;;;-3.39;84.38;99786.42;1779396;80;21187;-82
2021/01/01 06:58:02;;;;;;;69.25;26.35;;;;;;;-3.40;84.40;99783.44;1779190;80;21160;-82
2021/01/01 07:00:51;;;;;;;51.23;22.65;;;;;;;-3.38;84.23;99787.27;1787533;80;21127;-82
2021/01/01 07:03:31;;;;;;;85.97;29.10;;;;;;;-3.36;84.44;99787.98;1787730;80;21180;-82
2021/01/01 07:06:07;;;;;;;89.60;30.02;;;;;;;-3.35;84.46;99790.52;1787624;80;21159;-82
2021/01/01 07:08:45;;;;;;;57.80;22.82;;;;;;;-3.30;84.50;99787.59;1787544;80;21152;-82
2021/01/01 07:11:31;;;;;;;55.17;24.18;;;;;;;-3.25;84.51;99788.14;1787977;80;21129;-82
2021/01/01 07:14:08;;;;;;;59.18;26.20;;;;;;;-3.28;84.52;99790.95;1787766;80;21565;-81
2021/01/01 07:16:41;;;;;;;55.67;22.58;;;;;;;-3.32;84.54;99790.31;1787650;80;21251;-82
2021/01/01 07:19:08;;;;;;;60.98;27.67;;;;;;;-3.34;84.53;99791.36;1781747;80;21206;-81
2021/01/01 07:21:36;;;;;;;59.35;23.00;;;;;;;-3.35;84.55;99789.67;1748340;80;21216;-82
2021/01/01 07:24:02;;;;;;;59.77;24.15;;;;;;;-3.32;84.57;99786.86;1780977;80;21592;-82
2021/01/01 07:26:30;;;;;;;54.85;24.05;;;;;;;-3.31;84.58;99785.94;1748261;80;21125;-82
2021/01/01 07:29:01;;;;;;;57.08;23.22;;;;;;;-3.30;84.59;99783.68;1748621;82;21584;-82
2021/01/01 07:31:28;;;;;;;51.15;20.43;;;;;;;-3.31;84.60;99783.33;1748687;81;21280;-82
2021/01/01 07:33:54;;;;;;;52.10;21.10;;;;;;;-3.29;84.61;99786.66;1780831;80;21171;-82
2021/01/01 07:36:20;;;;;;;60.67;24.40;;;;;;;-3.29;84.65;99787.97;1748609;82;21562;-82
2021/01/01 07:38:47;;;;;;;60.50;25.85;;;;;;;-3.32;84.65;99794.22;1780995;80;21545;-82
2021/01/01 07:41:17;;;;;;;64.22;24.27;;;;;;;-3.31;84.68;99792.45;1748568;82;21546;-82
2021/01/01 07:43:43;;;;;;;57.83;23.60;;;;;;;-3.29;84.71;99803.14;1780519;80;21201;-82
2021/01/01 07:46:10;;;;;;;67.17;29.32;;;;;;;-3.22;84.73;99806.20;1747739;80;21140;-82
2021/01/01 07:48:37;;;;;;;69.62;25.75;;;;;;;-3.14;84.74;99793.52;1753202;81;21232;-82
2021/01/01 07:51:07;;;;;;;72.47;28.47;;;;;;;-3.11;84.76;99789.41;1750980;82;21180;-82
2021/01/01 07:53:37;;;;;;;71.20;28.65;;;;;;;-3.06;84.77;99791.23;1750878;82;21112;-82
2021/01/01 07:56:06;;;;;;;75.72;31.30;;;;;;;-3.00;84.78;99784.80;1751136;82;21200;-82
2021/01/01 07:58:33;;;;;;;86.57;33.20;;;;;;;-2.98;84.80;99788.97;1750946;82;21199;-82
2021/01/01 08:01:10;;;;;;;71.40;36.13;;;;;;;-2.93;84.82;99796.04;1754585;78;21214;-82
2021/01/01 08:03:38;;;;;;;81.80;30.95;;;;;;;-2.90;84.82;99798.44;1760541;81;21166;-82
2021/01/01 08:06:07;;;;;;;235.50;70.30;;;;;;;-2.85;84.82;99798.96;1760528;81;21151;-82
2021/01/01 08:08:33;;;;;;;191.28;75.45;;;;;;;-2.88;84.83;99805.69;1760096;81;21199;-82
2021/01/01 08:10:59;;;;;;;159.37;48.90;;;;;;;-2.85;84.83;99804.67;1760065;81;21182;-83
2021/01/01 08:13:30;;;;;;;108.42;36.55;;;;;;;-2.88;84.84;99791.34;1760293;80;21703;-83
2021/01/01 08:15:58;;;;;;;117.67;38.10;;;;;;;-2.91;84.83;99799.37;1760538;80;21127;-81
2021/01/01 08:18:26;;;;;;;78.97;28.32;;;;;;;-2.91;84.87;99812.88;1760567;80;21174;-81
2021/01/01 08:21:00;;;;;;;81.40;33.10;;;;;;;-2.86;84.86;99816.88;1760653;81;21197;-82
2021/01/01 08:23:28;;;;;;;70.80;25.75;;;;;;;-2.82;84.89;99823.57;1760663;81;21155;-82
2021/01/01 08:25:54;;;;;;;188.12;52.55;;;;;;;-2.78;84.90;99822.41;1760741;81;21211;-81
2021/01/01 08:28:24;;;;;;;162.10;54.23;;;;;;;-2.77;84.89;99816.27;1760664;81;21237;-82
2021/01/01 08:30:59;;;;;;;71.00;30.25;;;;;;;-2.71;84.92;99833.30;1751811;81;21585;-82
2021/01/01 08:33:39;;;;;;;79.47;28.95;;;;;;;-2.59;84.91;99833.79;1751005;81;21223;-81
2021/01/01 08:36:07;;;;;;;;;;;;;;;-2.54;84.90;99836.48;1762230;80;21179;-82
2021/01/01 08:38:34;;;;;;;92.25;34.25;;;;;;;-2.55;84.89;99840.02;1760170;81;20288;-81
2021/01/01 08:41:01;;;;;;;92.85;36.90;;;;;;;-2.60;84.88;99843.85;1760097;81;21136;-81
2021/01/01 08:43:28;;;;;;;99.95;42.05;;;;;;;-2.57;84.92;99847.09;1757017;81;21091;-81
2021/01/01 08:45:54;;;;;;;107.32;41.45;;;;;;;-2.53;84.94;99847.73;1754594;80;21189;-81
2021/01/01 08:48:21;;;;;;;105.92;40.35;;;;;;;-2.44;84.93;99849.75;1773368;80;21140;-81
2021/01/01 08:50:52;;;;;;;116.55;47.20;;;;;;;-2.38;84.93;99848.50;1760367;81;21572;-81
2021/01/01 08:53:18;;;;;;;151.95;60.70;;;;;;;-2.31;84.91;99856.29;1764463;80;21158;-81
2021/01/01 08:55:59;;;;;;;162.68;61.05;;;;;;;-2.28;84.92;99846.48;1759858;80;21214;-82
2021/01/01 08:58:25;;;;;;;121.13;46.90;;;;;;;-2.35;84.91;99848.29;1760666;80;21147;-82
2021/01/01 09:00:52;;;;;;;78.28;31.27;;;;;;;-2.33;84.93;99847.73;1768607;80;21132;-82
2021/01/01 09:03:22;;;;;;;86.45;31.60;;;;;;;-2.33;84.89;99846.43;1730948;81;21551;-82
2021/01/01 09:05:54;;;;;;;142.80;53.83;;;;;;;-2.39;84.90;99847.66;1714869;82;21130;-82
2021/01/01 09:08:24;;;;;;;555.98;249.02;;;;;;;-2.42;84.87;99852.24;1739785;81;21187;-82
2021/01/01 09:10:54;;;;;;;;;;;;;;;-2.40;84.87;99844.70;1740745;81;21185;-83
2021/01/01 09:13:26;;;;;;;316.38;147.37;;;;;;;-2.38;84.86;99845.89;1746900;81;20288;-82
2021/01/01 09:16:04;;;;;;;187.65;82.57;;;;;;;-2.31;84.88;99849.77;1760152;81;21669;-82
2021/01/01 09:18:30;;;;;;;341.88;150.22;;;;;;;-2.20;84.88;99855.11;1732596;81;21207;-82
2021/01/01 09:21:13;;;;;;;101.62;39.08;;;;;;;-2.06;84.86;99860.24;1729923;83;21171;-82
2021/01/01 09:23:40;;;;;;;94.20;37.00;;;;;;;-2.04;84.87;99855.27;1749175;81;22164;-83
2021/01/01 09:26:07;;;;;;;82.33;32.73;;;;;;;-2.07;84.84;99866.39;1755591;81;21182;-81
2021/01/01 09:28:34;;;;;;;73.95;32.40;;;;;;;-2.04;84.86;99870.94;1738107;81;21628;-81
2021/01/01 09:31:00;;;;;;;101.90;41.73;;;;;;;-2.04;84.84;99869.64;1754612;81;21179;-81
2021/01/01 09:33:27;;;;;;;114.25;44.53;;;;;;;-2.02;84.84;99859.09;1741661;81;21139;-81
2021/01/01 09:35:53;;;;;;;112.05;43.90;;;;;;;-1.93;84.84;99861.54;1736977;81;21981;-82
2021/01/01 09:38:19;;;;;;;207.57;77.10;;;;;;;-1.92;84.85;99860.14;1745264;81;22375;-82
2021/01/01 09:40:46;;;;;;;213.80;83.47;;;;;;;-1.96;84.83;99852.61;1752647;81;21196;-82
2021/01/01 09:43:12;;;;;;;147.10;60.60;;;;;;;-1.97;84.80;99854.38;1745517;81;21670;-81
2021/01/01 09:45:39;;;;;;;297.35;129.53;;;;;;;-1.92;84.83;99861.45;1747502;81;21781;-81
2021/01/01 09:48:07;;;;;;;285.55;119.95;;;;;;;-1.91;84.85;99861.82;1746176;81;21202;-82
2021/01/01 09:50:33;;;;;;;114.62;45.05;;;;;;;-1.83;84.83;99862.11;1746362;81;21184;-81
2021/01/01 09:52:59;;;;;;;467.27;156.02;;;;;;;-1.71;84.82;99852.14;1752845;81;21192;-82
2021/01/01 09:55:26;;;;;;;383.90;117.17;;;;;;;-1.64;84.80;99849.94;1735755;81;21187;-81
2021/01/01 09:57:52;;;;;;;211.37;68.33;;;;;;;-1.60;84.78;99847.00;1729216;81;21167;-81
2021/01/01 10:00:19;;;;;;;339.82;101.70;;;;;;;-1.61;84.78;99844.02;1740055;81;22011;-82
2021/01/01 10:02:45;;;;;;;344.02;99.42;;;;;;;-1.65;84.77;99843.86;1736168;79;21192;-81
2021/01/01 10:05:12;;;;;;;187.85;66.22;;;;;;;-1.68;84.77;99840.16;1750074;81;21616;-81
2021/01/01 10:07:38;;;;;;;139.43;52.00;;;;;;;-1.67;84.76;99846.23;1757485;81;21143;-81
2021/01/01 10:10:06;;;;;;;103.95;40.35;;;;;;;-1.57;84.75;99850.71;1743450;81;21155;-81
2021/01/01 10:12:32;;;;;;;103.40;39.05;;;;;;;-1.59;84.74;99863.06;1735021;81;21266;-81
2021/01/01 10:15:00;;;;;;;223.82;81.57;;;;;;;-1.58;84.74;99856.87;1757386;81;21128;-81
2021/01/01 10:17:27;;;;;;;162.35;62.62;;;;;;;-1.56;84.75;99849.77;1730744;81;21642;-81
2021/01/01 10:19:54;;;;;;;125.92;52.70;;;;;;;-1.49;84.74;99854.57;1739402;81;21600;-81
2021/01/01 10:22:20;;;;;;;112.03;45.17;;;;;;;-1.43;84.72;99852.36;1745087;81;21147;-81
2021/01/01 10:24:47;;;;;;;141.50;56.10;;;;;;;-1.40;84.71;99851.30;1751678;81;21252;-81
2021/01/01 10:27:14;;;;;;;161.73;56.90;;;;;;;-1.41;84.71;99854.88;1758703;81;21218;-81
2021/01/01 10:29:40;;;;;;;340.05;135.03;;;;;;;-1.42;84.72;99849.27;1732198;81;21191;-81
2021/01/01 10:32:15;;;;;;;211.82;75.87;;;;;;;-1.43;84.68;99850.20;1758867;81;21151;-82
2021/01/01 10:34:43;;;;;;;229.53;70.15;;;;;;;-1.46;84.69;99852.58;1748356;81;21739;-82
2021/01/01 10:37:12;;;;;;;136.32;53.17;;;;;;;-1.51;84.66;99852.05;1739965;81;21210;-83
2021/01/01 10:39:39;;;;;;;131.05;45.70;;;;;;;-1.55;84.64;99847.50;1744504;81;21223;-82
2021/01/01 10:42:06;;;;;;;179.57;61.25;;;;;;;-1.53;84.66;99852.17;1749081;81;21128;-82
2021/01/01 10:44:32;;;;;;;165.85;58.98;;;;;;;-1.46;84.66;99853.04;1732549;82;21141;-83
2021/01/01 10:46:59;;;;;;;176.12;59.67;;;;;;;-1.42;84.67;99856.66;1739873;81;21160;-83
2021/01/01 10:49:26;;;;;;;162.82;60.85;;;;;;;-1.39;84.65;99847.75;1744671;81;21881;-82
2021/01/01 10:51:56;;;;;;;114.35;40.17;;;;;;;-1.27;84.65;99853.44;1759222;81;21176;-82
2021/01/01 10:54:23;;;;;;;115.22;46.53;;;;;;;-1.20;84.66;99855.98;1732299;81;21664;-83
2021/01/01 10:56:49;;;;;;;109.12;44.42;;;;;;;-1.18;84.65;99851.45;1730162;81;21242;-83
2021/01/01 10:59:15;;;;;;;246.13;77.45;;;;;;;-1.13;84.67;99854.59;1752816;81;21163;-82
2021/01/01 11:01:42;;;;;;;191.62;63.45;;;;;;;-1.05;84.67;99854.86;1728233;82;21303;-83
2021/01/01 11:04:08;;;;;;;157.80;53.83;;;;;;;-1.07;84.65;99851.53;1779127;80;21664;-83
2021/01/01 11:06:39;;;;;;;111.20;44.13;;;;;;;-1.08;84.66;99852.47;1747986;81;21146;-81
2021/01/01 11:09:07;;;;;;;130.30;49.48;;;;;;;-1.02;84.65;99846.79;1765251;80;21153;-82
2021/01/01 11:11:33;;;;;;;109.45;46.10;;;;;;;-0.91;84.63;99844.23;1754877;80;21180;-80
2021/01/01 11:14:08;;;;;;;475.75;168.10;;;;;;;-0.79;84.63;99847.75;1768411;80;21921;-81
2021/01/01 12:22:57;;;;;;;227.62;74.45;;;;;;;-0.28;84.29;99823.44;1723609;81;22083;-81
2021/01/01 12:25:19;;;;;;;;;;;;;;;-0.22;84.26;99821.19;1746199;81;21574;-81
2021/01/01 12:27:46;;;;;;;149.47;56.83;;;;;;;-0.20;84.27;99815.81;1744353;81;20312;-82